Time;durP1;ratioP1;P1;durP2;ratioP2;P2;SDS_P1;SDS_P2;PMS_P1;PMS_P2;Temp;Humidity;BMP_temperature;BMP_pressure;BME280_temperature;BME280_humidity;BME280_pressure;Samples;Min_cycle;Max_cycle;Signal;HPM_P1;HPM_P2
2021/12/31 00:01:56;;;;;;;22.25;14.47;;;;;;;6.75;88.22;100482.56;1658427;86;21158;-81
2021/12/31 00:04:27;;;;;;;23.45;16.12;;;;;;;6.76;88.29;100493.95;1658349;85;21793;-82
2021/12/31 00:06:52;;;;;;;14.55;10.53;;;;;;;6.75;88.31;100486.48;1657255;84;21138;-81
2021/12/31 00:09:18;;;;;;;13.68;9.35;;;;;;;6.79;88.35;100479.64;1658381;86;21691;-83
2021/12/31 00:11:45;;;;;;;6.95;5.10;;;;;;;6.81;88.36;100491.05;1658462;86;21325;-82
2021/12/31 00:14:12;;;;;;;5.15;4.10;;;;;;;6.83;88.31;100481.53;1658668;85;21161;-81
2021/12/31 00:16:49;;;;;;;5.33;4.83;;;;;;;6.84;88.43;100481.14;1657785;86;22729;-82
2021/12/31 00:19:38;;;;;;;10.23;7.05;;;;;;;6.87;88.41;100487.37;1652847;85;21178;-82
2021/12/31 00:25:09;;;;;;;23.50;17.17;;;;;;;6.93;88.59;100502.40;1597215;86;21082;-83
2021/12/31 00:27:47;;;;;;;11.78;9.93;;;;;;;6.98;88.74;100495.19;1656048;84;21175;-83
2021/12/31 00:30:18;;;;;;;12.03;9.80;;;;;;;6.98;88.65;100476.86;1631239;85;21436;-82
2021/12/31 00:33:01;;;;;;;10.23;8.28;;;;;;;6.98;88.70;100472.02;1653303;84;21094;-82
2021/12/31 00:35:28;;;;;;;11.05;8.63;;;;;;;6.99;88.84;100476.44;1654974;86;21114;-80
2021/12/31 00:37:55;;;;;;;20.20;15.60;;;;;;;7.02;88.95;100476.55;1655999;85;21597;-81
2021/12/31 00:40:21;;;;;;;18.48;13.60;;;;;;;7.06;89.06;100480.14;1653629;85;21114;-81
2021/12/31 00:42:48;;;;;;;20.60;16.25;;;;;;;7.06;89.09;100484.98;1657577;85;21429;-81
2021/12/31 00:45:18;;;;;;;25.70;21.75;;;;;;;7.09;89.15;100495.96;1657155;86;21089;-81
2021/12/31 00:47:45;;;;;;;12.40;10.58;;;;;;;7.12;89.31;100494.34;1656505;85;21093;-81
2021/12/31 00:50:12;;;;;;;15.15;12.88;;;;;;;7.17;89.42;100486.23;1655163;85;21707;-80
2021/12/31 00:52:48;;;;;;;16.05;12.82;;;;;;;7.22;89.35;100488.12;1656361;85;21106;-81
2021/12/31 00:55:16;;;;;;;23.27;18.25;;;;;;;7.26;89.43;100488.69;1627932;86;21137;-81
2021/12/31 00:57:48;;;;;;;12.58;9.08;;;;;;;7.29;89.36;100474.41;1654270;86;21580;-81
2021/12/31 01:00:33;;;;;;;11.05;7.60;;;;;;;7.34;89.54;100478.08;1655030;85;21086;-81
2021/12/31 01:03:08;;;;;;;11.25;8.73;;;;;;;7.35;89.65;100471.98;1656114;85;21628;-81
2021/12/31 01:05:36;;;;;;;16.25;11.10;;;;;;;7.51;89.76;100495.66;1658584;84;21074;-82
2021/12/31 01:08:05;;;;;;;16.67;10.35;;;;;;;7.59;89.93;100480.65;1658166;86;21838;-81
2021/12/31 01:10:32;;;;;;;23.95;16.80;;;;;;;7.67;89.90;100487.87;1658281;86;21759;-81
2021/12/31 01:13:08;;;;;;;18.67;12.88;;;;;;;7.71;89.81;100472.72;1658217;86;21093;-81
2021/12/31 01:15:37;;;;;;;18.82;13.55;;;;;;;7.76;89.79;100475.95;1656650;84;21089;-81
2021/12/31 01:18:16;;;;;;;12.50;8.85;;;;;;;7.79;89.88;100473.44;1658304;84;21086;-81
2021/12/31 01:20:30;;;;;;;12.20;7.75;;;;;;;7.83;89.89;100481.37;1656690;85;21754;-82
2021/12/31 01:22:57;;;;;;;24.40;16.00;;;;;;;7.86;89.83;100481.48;1658930;85;21093;-82
2021/12/31 01:25:23;;;;;;;13.32;8.08;;;;;;;7.87;89.79;100472.37;1658669;86;21086;-82
2021/12/31 01:27:50;;;;;;;13.53;10.38;;;;;;;7.90;89.81;100487.29;1658923;86;21109;-81
2021/12/31 01:30:17;;;;;;;5.70;5.00;;;;;;;7.92;89.79;100476.03;1658643;86;21584;-81
2021/12/31 01:32:45;;;;;;;5.12;3.75;;;;;;;7.94;89.73;100480.90;1658631;86;21948;-81
2021/12/31 01:35:12;;;;;;;2.42;1.85;;;;;;;7.98;89.82;100499.80;1658486;85;21114;-80
2021/12/31 01:37:39;;;;;;;4.05;2.05;;;;;;;8.03;89.92;100501.67;1658515;86;21628;-80
2021/12/31 01:40:09;;;;;;;2.27;1.75;;;;;;;8.08;89.95;100511.89;1658255;85;22255;-80
2021/12/31 01:42:36;;;;;;;3.00;2.60;;;;;;;8.11;89.83;100507.63;1658258;86;21094;-80
2021/12/31 01:45:18;;;;;;;2.22;1.67;;;;;;;8.16;89.81;100515.63;1656814;86;21743;-81
2021/12/31 01:50:19;;;;;;;3.05;2.22;;;;;;;8.26;90.01;100513.77;1654034;86;21086;-81
2021/12/31 01:52:46;;;;;;;4.75;3.40;;;;;;;8.33;89.89;100513.52;1654035;86;21082;-80
2021/12/31 01:55:13;;;;;;;2.80;1.95;;;;;;;8.37;89.84;100517.61;1653972;86;21058;-81
2021/12/31 01:57:41;;;;;;;2.25;1.85;;;;;;;8.41;89.71;100512.44;1653922;86;22626;-80
2021/12/31 02:00:10;;;;;;;2.00;1.70;;;;;;;8.45;89.71;100503.88;1653906;86;21098;-81
2021/12/31 02:02:36;;;;;;;1.90;1.70;;;;;;;8.46;89.63;100501.27;1654043;86;21559;-80
2021/12/31 02:05:04;;;;;;;2.33;1.85;;;;;;;8.50;89.59;100490.45;1654181;86;21825;-81
2021/12/31 02:07:31;;;;;;;1.90;1.45;;;;;;;8.50;89.54;100486.52;1653777;86;21082;-81
2021/12/31 02:09:58;;;;;;;1.90;1.40;;;;;;;8.52;89.48;100488.75;1654046;86;21767;-81
2021/12/31 02:12:25;;;;;;;2.00;1.40;;;;;;;8.53;89.44;100485.30;1653857;86;21082;-81
2021/12/31 02:14:52;;;;;;;2.08;1.20;;;;;;;8.54;89.48;100487.97;1654333;86;21074;-81
2021/12/31 02:17:19;;;;;;;1.32;1.20;;;;;;;8.55;89.38;100491.48;1654040;86;21043;-81
2021/12/31 02:20:05;;;;;;;1.75;1.30;;;;;;;8.56;89.39;100490.22;1627760;86;21122;-81
2021/12/31 02:22:38;;;;;;;2.05;1.57;;;;;;;8.57;89.39;100492.41;1654146;86;21757;-81
2021/12/31 02:25:08;;;;;;;1.60;1.00;;;;;;;8.61;89.50;100494.70;1654191;86;21146;-80
2021/12/31 02:27:38;;;;;;;1.60;1.10;;;;;;;8.63;89.42;100492.58;1654285;86;22384;-80
2021/12/31 02:30:06;;;;;;;2.33;1.32;;;;;;;8.66;89.46;100491.80;1653972;85;21699;-81
2021/12/31 02:32:33;;;;;;;1.70;1.00;;;;;;;8.69;89.53;100492.77;1654141;86;21090;-80
2021/12/31 02:35:00;;;;;;;1.57;1.10;;;;;;;8.75;89.53;100499.93;1654185;86;21794;-80
2021/12/31 02:37:26;;;;;;;1.07;0.80;;;;;;;8.78;89.48;100503.93;1654055;86;21596;-80
2021/12/31 02:39:53;;;;;;;1.07;0.98;;;;;;;8.80;89.44;100503.98;1654136;86;21102;-79
2021/12/31 02:42:22;;;;;;;1.00;0.85;;;;;;;8.85;89.52;100499.33;1645621;86;21127;-79
2021/12/31 02:44:50;;;;;;;1.27;1.00;;;;;;;8.88;89.51;100496.80;1654136;86;21118;-81
2021/12/31 02:47:17;;;;;;;1.15;1.00;;;;;;;8.90;89.59;100496.41;1654208;86;21793;-81
2021/12/31 02:49:46;;;;;;;1.40;0.90;;;;;;;8.97;89.67;100504.45;1654111;86;21105;-82
2021/12/31 02:52:13;;;;;;;0.95;0.90;;;;;;;8.88;89.64;100478.86;1653980;85;21154;-81
2021/12/31 02:54:46;;;;;;;2.45;1.00;;;;;;;9.03;89.61;100501.58;1654217;86;21086;-81
2021/12/31 02:57:14;;;;;;;1.72;1.20;;;;;;;9.07;89.56;100503.44;1654308;86;21178;-80
2021/12/31 02:59:41;;;;;;;0.60;0.60;;;;;;;9.10;89.57;100503.94;1653916;86;22552;-80
2021/12/31 03:02:07;;;;;;;1.00;0.85;;;;;;;9.10;89.39;100499.59;1653917;86;21082;-80
2021/12/31 03:04:36;;;;;;;2.15;0.85;;;;;;;9.11;89.34;100500.04;1653967;86;21146;-80
2021/12/31 03:07:06;;;;;;;1.10;0.60;;;;;;;9.12;89.34;100493.95;1645955;86;21094;-81
2021/12/31 03:09:33;;;;;;;1.17;0.80;;;;;;;9.14;89.33;100500.14;1654065;86;21105;-81
2021/12/31 03:12:00;;;;;;;1.07;0.70;;;;;;;9.16;89.33;100502.81;1654090;86;21921;-81
2021/12/31 03:14:27;;;;;;;1.52;0.80;;;;;;;9.18;89.30;100510.30;1654152;86;21086;-80
2021/12/31 03:16:54;;;;;;;1.60;0.90;;;;;;;9.20;89.31;100514.29;1654292;86;21580;-80
2021/12/31 03:19:21;;;;;;;1.20;0.80;;;;;;;9.22;89.15;100512.59;1654195;86;21607;-81
2021/12/31 03:21:48;;;;;;;0.90;0.70;;;;;;;9.24;89.12;100510.89;1654188;86;21487;-80
2021/12/31 03:24:15;;;;;;;1.00;0.75;;;;;;;9.25;89.07;100512.64;1654098;86;21921;-81
2021/12/31 03:26:41;;;;;;;0.95;0.88;;;;;;;9.26;89.01;100514.44;1654029;86;21600;-80
2021/12/31 03:29:08;;;;;;;0.90;0.90;;;;;;;9.27;89.05;100513.17;1654172;86;22105;-81
2021/12/31 03:31:35;;;;;;;1.15;0.88;;;;;;;9.31;89.17;100509.77;1654241;86;21099;-81
2021/12/31 03:34:03;;;;;;;3.12;1.00;;;;;;;9.33;89.01;100522.52;1654506;86;21209;-81
2021/12/31 03:36:30;;;;;;;1.57;0.90;;;;;;;9.33;88.96;100514.64;1653469;85;21769;-80
2021/12/31 03:38:57;;;;;;;1.22;0.85;;;;;;;9.32;89.02;100499.71;1654477;86;21063;-80
2021/12/31 03:41:26;;;;;;;4.20;1.00;;;;;;;9.37;88.99;100515.61;1654340;86;21113;-80
2021/12/31 03:43:52;;;;;;;1.25;0.90;;;;;;;9.39;89.02;100511.72;1653874;86;21078;-81
2021/12/31 03:46:19;;;;;;;0.72;0.70;;;;;;;9.41;88.93;100517.89;1654222;86;21823;-81
2021/12/31 03:48:47;;;;;;;1.37;0.80;;;;;;;9.41;88.92;100514.84;1646194;86;21102;-81
2021/12/31 03:51:14;;;;;;;1.17;0.90;;;;;;;9.42;88.84;100517.94;1654462;86;21134;-82
2021/12/31 03:53:41;;;;;;;0.90;0.80;;;;;;;9.43;88.71;100516.20;1654409;86;21086;-82
2021/12/31 03:56:07;;;;;;;2.20;1.20;;;;;;;9.43;88.73;100507.00;1654655;86;21196;-82
2021/12/31 03:58:34;;;;;;;1.25;0.82;;;;;;;9.40;88.69;100514.36;1654493;86;21142;-82
2021/12/31 04:01:01;;;;;;;1.70;1.00;;;;;;;9.41;88.80;100516.58;1654464;86;21756;-81
2021/12/31 04:03:28;;;;;;;1.57;1.00;;;;;;;9.44;88.82;100520.58;1654128;86;21628;-81
2021/12/31 04:05:57;;;;;;;1.72;0.88;;;;;;;9.43;88.70;100522.33;1654392;86;21109;-81
2021/12/31 04:08:23;;;;;;;1.27;0.78;;;;;;;9.46;88.80;100526.36;1654098;86;21097;-83
2021/12/31 04:10:50;;;;;;;0.95;0.78;;;;;;;9.47;88.72;100536.44;1654331;86;21552;-81
2021/12/31 04:13:17;;;;;;;0.62;0.53;;;;;;;9.48;88.69;100536.48;1654198;86;21805;-81
2021/12/31 04:15:44;;;;;;;0.93;0.70;;;;;;;9.49;88.68;100545.24;1654246;86;21200;-81
2021/12/31 04:18:11;;;;;;;1.45;0.80;;;;;;;9.50;88.63;100549.66;1654243;86;21078;-81
2021/12/31 04:20:43;;;;;;;1.12;0.82;;;;;;;9.51;88.72;100550.98;1653950;86;21220;-80
2021/12/31 04:23:26;;;;;;;0.60;0.60;;;;;;;9.54;88.73;100547.57;1653922;85;21090;-81
2021/12/31 04:25:43;;;;;;;1.12;0.75;;;;;;;9.57;88.76;100549.37;1652161;85;21775;-81
2021/12/31 04:28:10;;;;;;;1.10;0.57;;;;;;;9.59;88.75;100545.05;1654343;86;21066;-82
2021/12/31 04:30:37;;;;;;;1.37;0.80;;;;;;;9.58;88.73;100541.54;1654272;86;21586;-82
2021/12/31 04:33:06;;;;;;;1.72;0.85;;;;;;;9.58;88.53;100545.92;1654332;86;21171;-82
2021/12/31 04:35:32;;;;;;;1.25;0.88;;;;;;;9.58;88.59;100544.61;1654207;86;21113;-82
2021/12/31 04:38:01;;;;;;;0.60;0.60;;;;;;;9.57;88.50;100541.50;1645924;86;21086;-82
2021/12/31 04:40:31;;;;;;;2.58;0.68;;;;;;;9.58;88.59;100534.09;1654075;86;21094;-82
2021/12/31 04:42:56;;;;;;;2.20;1.02;;;;;;;9.60;88.60;100535.02;1653827;85;21596;-81
2021/12/31 04:45:26;;;;;;;1.92;1.25;;;;;;;9.61;88.58;100538.09;1654532;86;21114;-81
2021/12/31 04:47:52;;;;;;;2.70;1.40;;;;;;;9.61;88.45;100536.77;1658044;85;22307;-81
2021/12/31 04:50:20;;;;;;;3.00;1.80;;;;;;;9.60;88.51;100531.95;1639239;85;40918;-81
2021/12/31 04:52:49;;;;;;;3.58;1.67;;;;;;;9.64;88.63;100535.12;1658542;86;21102;-81
2021/12/31 04:55:15;;;;;;;2.52;1.30;;;;;;;9.65;88.55;100526.83;1658484;86;21090;-81
2021/12/31 04:57:47;;;;;;;3.08;1.80;;;;;;;9.67;88.52;100522.06;1658750;85;21105;-82
2021/12/31 05:00:13;;;;;;;2.08;1.40;;;;;;;9.68;88.44;100529.08;1658603;84;21066;-82
2021/12/31 05:02:39;;;;;;;3.02;1.50;;;;;;;9.69;88.47;100523.42;1659040;86;21830;-83
2021/12/31 05:05:07;;;;;;;1.37;1.07;;;;;;;9.70;88.43;100514.27;1658844;85;21643;-82
2021/12/31 05:07:34;;;;;;;1.55;1.10;;;;;;;9.71;88.33;100513.84;1658701;86;21091;-82
2021/12/31 05:10:04;;;;;;;1.90;1.02;;;;;;;9.69;88.26;100512.48;1658867;86;21094;-82
2021/12/31 05:12:33;;;;;;;1.95;1.37;;;;;;;9.67;88.18;100518.13;1658245;85;21624;-83
2021/12/31 05:15:00;;;;;;;1.40;1.10;;;;;;;9.68;88.17;100517.69;1658462;86;21777;-82
2021/12/31 05:17:27;;;;;;;1.77;1.40;;;;;;;9.69;88.28;100515.54;1658396;85;21114;-82
2021/12/31 05:19:54;;;;;;;1.67;1.30;;;;;;;9.70;88.31;100509.41;1658572;86;21113;-81
2021/12/31 05:22:21;;;;;;;3.55;1.80;;;;;;;9.69;88.32;100505.91;1639283;86;21097;-80
2021/12/31 05:24:48;;;;;;;2.12;1.30;;;;;;;9.71;88.34;100516.47;1658426;85;21097;-81
2021/12/31 05:27:16;;;;;;;3.12;1.40;;;;;;;9.70;88.34;100514.27;1661592;84;21126;-82
2021/12/31 05:29:43;;;;;;;1.55;1.45;;;;;;;9.71;88.40;100513.84;1658294;86;21085;-81
2021/12/31 05:32:09;;;;;;;1.92;1.20;;;;;;;9.73;88.37;100520.02;1658288;86;21106;-80
2021/12/31 05:37:24;;;;;;;1.20;1.05;;;;;;;9.79;88.31;100516.65;1836415;77;22810;-78
2021/12/31 05:39:51;;;;;;;1.87;1.10;;;;;;;9.76;88.28;100516.56;1794122;79;21105;-79
2021/12/31 05:42:17;;;;;;;2.05;0.93;;;;;;;9.74;88.15;100521.77;1794401;79;21743;-78
2021/12/31 05:44:44;;;;;;;0.85;0.85;;;;;;;9.72;88.07;100522.16;1794217;79;21062;-80
2021/12/31 05:47:11;;;;;;;1.52;1.05;;;;;;;9.68;87.98;100521.63;1794867;79;21061;-78
2021/12/31 05:49:38;;;;;;;2.40;1.30;;;;;;;9.65;87.97;100519.83;1794418;78;21080;-78
2021/12/31 05:52:06;;;;;;;2.83;1.92;;;;;;;9.65;88.00;100524.20;1794532;79;21073;-78
2021/12/31 05:54:33;;;;;;;4.62;1.50;;;;;;;9.63;87.99;100520.62;1794435;79;21755;-78
2021/12/31 05:56:59;;;;;;;11.90;8.30;;;;;;;9.61;88.02;100530.20;1787832;79;21192;-79
2021/12/31 05:59:26;;;;;;;7.40;5.08;;;;;;;9.60;88.06;100529.33;1785132;80;21439;-77
2021/12/31 06:01:53;;;;;;;4.55;2.40;;;;;;;9.60;88.18;100524.51;1753112;81;21582;-77
2021/12/31 06:04:20;;;;;;;4.58;2.00;;;;;;;9.59;88.17;100521.40;1752985;81;21106;-78
2021/12/31 06:06:46;;;;;;;1.60;1.47;;;;;;;9.58;88.18;100521.84;1753157;81;21781;-78
2021/12/31 06:09:13;;;;;;;4.08;1.82;;;;;;;9.58;88.23;100520.95;1752956;81;21036;-78
2021/12/31 06:11:40;;;;;;;2.85;1.90;;;;;;;9.58;88.28;100521.84;1753065;81;21106;-77
2021/12/31 06:14:08;;;;;;;1.65;1.55;;;;;;;9.60;88.44;100518.81;1753441;80;21576;-79
2021/12/31 06:16:40;;;;;;;4.25;1.98;;;;;;;9.62;88.43;100518.42;1753636;80;21075;-80
2021/12/31 06:19:05;;;;;;;40.20;30.60;;;;;;;9.62;88.37;100521.05;1753138;80;21941;-79
2021/12/31 06:21:46;;;;;;;15.13;8.95;;;;;;;9.60;88.38;100513.99;1753306;81;21125;-79
2021/12/31 06:24:10;;;;;;;4.80;3.37;;;;;;;9.60;88.39;100511.37;1753011;81;21298;-77
2021/12/31 06:26:37;;;;;;;2.55;1.80;;;;;;;9.60;88.38;100515.31;1753152;81;21533;-79
2021/12/31 06:29:04;;;;;;;1.85;1.60;;;;;;;9.59;88.38;100512.20;1753131;81;21604;-79
2021/12/31 06:31:31;;;;;;;4.62;1.37;;;;;;;9.61;88.54;100517.98;1753123;81;21961;-79
2021/12/31 06:33:57;;;;;;;5.08;2.00;;;;;;;9.60;88.52;100506.98;1753145;81;21082;-81
2021/12/31 06:36:27;;;;;;;2.47;1.47;;;;;;;9.51;88.46;100489.24;1748851;81;21126;-81
2021/12/31 06:38:54;;;;;;;1.75;1.40;;;;;;;9.61;88.49;100501.30;1777456;80;21082;-81
2021/12/31 06:41:21;;;;;;;2.77;1.30;;;;;;;9.59;88.37;100502.61;1744993;81;21576;-80
2021/12/31 06:43:48;;;;;;;2.25;1.12;;;;;;;9.58;88.43;100502.13;1777389;80;23093;-80
2021/12/31 06:46:14;;;;;;;1.72;1.20;;;;;;;9.58;88.55;100487.67;1745257;82;21039;-80
2021/12/31 06:48:41;;;;;;;1.95;1.30;;;;;;;9.61;88.63;100483.81;1777039;80;21090;-80
2021/12/31 06:51:08;;;;;;;1.60;1.37;;;;;;;9.62;88.60;100482.95;1744823;81;21612;-80
2021/12/31 06:53:34;;;;;;;40.17;34.25;;;;;;;9.62;88.60;100480.32;1745232;80;21630;-80
2021/12/31 06:56:01;;;;;;;56.73;42.33;;;;;;;9.62;88.59;100481.64;1777062;80;22872;-80
2021/12/31 06:58:28;;;;;;;5.70;4.40;;;;;;;9.62;88.62;100480.76;1776985;80;21070;-80
2021/12/31 07:00:55;;;;;;;2.77;2.30;;;;;;;9.64;88.70;100476.42;1777241;80;21564;-80
2021/12/31 07:03:23;;;;;;;2.15;1.95;;;;;;;9.64;88.70;100476.42;1776562;80;21026;-80
2021/12/31 07:05:50;;;;;;;2.35;1.95;;;;;;;9.66;88.72;100479.98;1744464;80;21718;-80
2021/12/31 07:08:19;;;;;;;42.60;28.35;;;;;;;9.65;88.72;100483.03;1777319;80;21911;-77
2021/12/31 07:10:46;;;;;;;12.37;8.55;;;;;;;9.66;88.69;100482.60;1776579;80;21138;-77
2021/12/31 07:13:12;;;;;;;3.52;2.92;;;;;;;9.65;88.77;100479.09;1777070;80;21039;-81
2021/12/31 07:15:41;;;;;;;3.25;2.00;;;;;;;9.65;88.77;100482.16;1743822;80;21130;-78
2021/12/31 07:18:08;;;;;;;3.00;1.80;;;;;;;9.64;88.77;100479.93;1777088;80;21419;-77
2021/12/31 07:20:35;;;;;;;3.72;2.10;;;;;;;9.65;88.84;100492.23;1777082;80;21909;-78
2021/12/31 07:23:10;;;;;;;5.83;3.17;;;;;;;9.65;88.85;100490.92;1777019;80;22169;-77
2021/12/31 07:25:40;;;;;;;5.45;3.30;;;;;;;9.66;88.83;100494.43;1776971;80;21702;-77
2021/12/31 07:28:09;;;;;;;4.67;3.17;;;;;;;9.67;88.87;100494.47;1776470;80;21054;-78
2021/12/31 07:30:36;;;;;;;5.87;3.50;;;;;;;9.68;89.02;100496.23;1776819;80;21110;-75
2021/12/31 07:33:05;;;;;;;8.95;5.62;;;;;;;9.71;89.00;100502.01;1776758;80;21754;-76
2021/12/31 07:35:31;;;;;;;9.78;5.92;;;;;;;9.72;89.11;100500.73;1776750;80;21079;-79
2021/12/31 07:37:59;;;;;;;4.20;3.00;;;;;;;9.76;89.19;100502.11;1767709;79;21075;-79
2021/12/31 07:40:39;;;;;;;4.62;3.25;;;;;;;9.77;89.13;100506.53;1767377;80;21098;-79
2021/12/31 07:43:10;;;;;;;4.22;2.30;;;;;;;9.79;89.16;100506.13;1739079;80;21141;-79
2021/12/31 07:45:38;;;;;;;3.17;2.35;;;;;;;9.78;89.11;100510.52;1767714;80;21258;-79
2021/12/31 07:48:05;;;;;;;4.80;2.90;;;;;;;9.79;89.13;100510.08;1767745;80;21082;-79
2021/12/31 07:50:32;;;;;;;6.17;3.45;;;;;;;9.81;89.10;100514.94;1767609;81;21082;-79
2021/12/31 07:52:58;;;;;;;4.62;3.62;;;;;;;9.78;89.04;100517.08;1767276;80;22074;-77
2021/12/31 07:55:25;;;;;;;6.20;4.03;;;;;;;9.78;89.01;100511.83;1766968;80;21521;-77
2021/12/31 07:57:52;;;;;;;4.42;3.10;;;;;;;9.78;89.07;100514.45;1767375;80;21833;-76
2021/12/31 08:00:19;;;;;;;4.97;2.67;;;;;;;9.78;89.02;100515.77;1767275;80;21114;-76
2021/12/31 08:02:46;;;;;;;4.00;2.75;;;;;;;9.78;89.05;100519.71;1767050;81;22227;-77
2021/12/31 08:05:12;;;;;;;4.10;3.10;;;;;;;9.79;89.12;100521.47;1767196;80;21310;-75
2021/12/31 08:07:39;;;;;;;6.12;3.42;;;;;;;9.71;88.99;100508.14;1767132;80;21121;-78
2021/12/31 08:10:07;;;;;;;4.83;3.15;;;;;;;9.79;89.07;100517.97;1767001;80;21733;-81
2021/12/31 08:12:37;;;;;;;3.30;2.52;;;;;;;9.80;89.16;100516.69;1739463;81;21070;-79
2021/12/31 08:15:06;;;;;;;3.65;2.50;;;;;;;9.81;89.13;100513.62;1767551;80;21599;-78
2021/12/31 08:17:35;;;;;;;3.70;2.22;;;;;;;9.82;89.15;100514.98;1767503;80;21747;-78
2021/12/31 08:20:02;;;;;;;4.08;2.47;;;;;;;9.84;89.29;100512.40;1767725;81;21114;-81
2021/12/31 08:22:30;;;;;;;3.85;2.27;;;;;;;9.86;89.26;100510.26;1767532;81;21733;-81
2021/12/31 08:25:00;;;;;;;3.35;2.05;;;;;;;9.88;89.20;100507.23;1767093;81;21122;-85
2021/12/31 08:27:26;;;;;;;2.58;2.20;;;;;;;9.90;89.16;100504.22;1767614;81;21700;-85
2021/12/31 08:29:53;;;;;;;3.85;2.20;;;;;;;9.92;89.21;100505.57;1767843;81;21062;-87
2021/12/31 08:32:20;;;;;;;3.05;2.27;;;;;;;9.96;89.22;100509.16;1767435;80;21857;-82
2021/12/31 08:34:46;;;;;;;9.13;5.70;;;;;;;9.98;89.18;100507.45;1767513;81;21725;-82
2021/12/31 08:37:13;;;;;;;13.80;6.75;;;;;;;9.97;89.01;100505.27;1767351;79;21058;-82
2021/12/31 08:39:40;;;;;;;10.80;6.53;;;;;;;9.96;88.86;100499.97;1767428;80;21150;-84
2021/12/31 08:42:07;;;;;;;10.50;8.05;;;;;;;9.94;88.73;100493.34;1767389;80;21663;-82
2021/12/31 08:44:34;;;;;;;26.60;24.10;;;;;;;9.95;88.70;100492.91;1765321;79;21595;-83
2021/12/31 08:47:01;;;;;;;30.30;22.50;;;;;;;9.93;88.68;100499.04;1764597;79;21750;-83
2021/12/31 08:49:27;;;;;;;74.20;47.45;;;;;;;9.92;88.64;100503.82;1739392;81;21127;-83
2021/12/31 08:51:54;;;;;;;52.00;38.13;;;;;;;9.91;88.54;100509.07;1767685;80;21079;-83
2021/12/31 08:54:21;;;;;;;40.73;26.95;;;;;;;9.90;88.49;100505.53;1767579;80;21062;-80
2021/12/31 08:56:47;;;;;;;55.28;38.35;;;;;;;9.91;88.54;100498.55;1767645;80;21114;-83
2021/12/31 08:59:14;;;;;;;73.80;50.75;;;;;;;9.91;88.58;100498.13;1767683;81;21702;-83
2021/12/31 09:01:41;;;;;;;46.00;34.80;;;;;;;9.92;88.59;100499.88;1767333;80;21055;-82
2021/12/31 09:04:08;;;;;;;77.27;54.65;;;;;;;9.92;88.58;100493.30;1767456;80;21122;-81
2021/12/31 09:06:34;;;;;;;109.87;69.58;;;;;;;9.90;88.55;100495.45;1739630;81;21078;-79
2021/12/31 09:09:07;;;;;;;72.95;52.55;;;;;;;9.92;88.54;100499.88;1767891;80;21070;-91
2021/12/31 09:11:33;;;;;;;95.62;69.90;;;;;;;9.95;88.50;100496.86;1767134;80;21518;-84
2021/12/31 09:14:00;;;;;;;107.27;95.53;;;;;;;9.95;88.45;100504.34;1768072;81;21066;-87
2021/12/31 09:16:27;;;;;;;59.05;49.05;;;;;;;9.96;88.53;100501.28;1740277;81;21078;-84
2021/12/31 09:18:54;;;;;;;91.78;64.75;;;;;;;9.97;88.50;100493.87;1767552;81;21117;-84
2021/12/31 09:21:29;;;;;;;38.00;29.37;;;;;;;10.00;88.52;100497.42;1767414;81;21134;-92
2021/12/31 09:23:59;;;;;;;35.65;25.30;;;;;;;10.05;88.62;100496.23;1768134;80;22435;-93
2021/12/31 09:27:03;;;;;;;57.93;41.48;;;;;;;10.09;88.57;100495.01;1767493;81;21902;-94
2021/12/31 09:29:53;;;;;;;37.55;31.17;;;;;;;10.12;88.48;100496.84;1715240;83;21110;-93
2021/12/31 09:32:26;;;;;;;40.12;32.88;;;;;;;10.12;88.26;100494.21;1691519;83;26659;-92
2021/12/31 09:34:55;;;;;;;18.60;14.70;;;;;;;10.11;88.23;100487.16;1715096;83;21114;-93
2021/12/31 09:37:22;;;;;;;16.10;12.82;;;;;;;10.10;88.19;100482.34;1715593;83;22620;-84
2021/12/31 09:39:49;;;;;;;23.60;21.30;;;;;;;10.11;88.13;100475.33;1716191;83;21166;-83
2021/12/31 09:42:19;;;;;;;48.73;40.58;;;;;;;10.13;88.25;100478.88;1716482;83;21195;-84
2021/12/31 09:44:48;;;;;;;51.60;38.00;;;;;;;10.15;88.28;100486.37;1716432;83;21102;-84
2021/12/31 09:47:16;;;;;;;9.38;8.10;;;;;;;10.18;88.29;100481.19;1716497;83;21109;-83
2021/12/31 09:49:55;;;;;;;5.85;4.42;;;;;;;10.20;88.22;100483.42;1716262;83;22596;-84
2021/12/31 09:52:13;;;;;;;8.70;7.10;;;;;;;10.23;88.22;100477.33;1710097;83;21247;-84
2021/12/31 09:54:42;;;;;;;7.90;6.33;;;;;;;10.26;88.17;100466.89;1716433;83;21137;-84
2021/12/31 09:57:22;;;;;;;5.37;4.87;;;;;;;10.30;88.18;100466.09;1715319;83;21607;-83
2021/12/31 09:59:48;;;;;;;10.13;6.22;;;;;;;10.36;88.17;100464.97;1716208;83;21572;-84
2021/12/31 10:02:15;;;;;;;6.70;5.45;;;;;;;10.40;88.06;100458.91;1716383;83;21935;-84
2021/12/31 10:04:59;;;;;;;4.03;3.40;;;;;;;10.42;88.04;100455.88;1716245;83;21109;-86
2021/12/31 10:07:29;;;;;;;5.33;4.25;;;;;;;10.46;87.94;100455.52;1761483;80;21070;-85
2021/12/31 10:10:13;;;;;;;4.15;3.27;;;;;;;10.46;87.86;100452.88;1776996;80;21047;-83
2021/12/31 10:12:58;;;;;;;3.33;2.80;;;;;;;10.47;87.84;100462.13;1777427;80;21074;-83
2021/12/31 10:15:30;;;;;;;3.60;2.50;;;;;;;10.47;87.79;100445.02;1777421;80;21767;-83
2021/12/31 10:17:57;;;;;;;5.62;3.05;;;;;;;10.48;87.67;100445.47;1744368;80;21109;-79
2021/12/31 10:20:27;;;;;;;5.35;2.27;;;;;;;10.44;87.59;100442.75;1776935;80;21109;-79
2021/12/31 10:22:53;;;;;;;6.35;3.02;;;;;;;10.43;87.66;100438.34;1776707;80;21046;-81
2021/12/31 10:25:24;;;;;;;7.12;3.20;;;;;;;10.42;87.71;100433.52;1696886;80;21129;-80
2021/12/31 10:27:52;;;;;;;7.65;3.92;;;;;;;10.44;87.74;100425.66;1777031;80;21754;-79
2021/12/31 10:30:23;;;;;;;7.33;3.65;;;;;;;10.47;87.86;100420.43;1777007;80;21059;-76
2021/12/31 10:32:50;;;;;;;11.97;7.00;;;;;;;10.54;88.00;100415.75;1744047;80;21074;-78
2021/12/31 10:35:20;;;;;;;22.17;15.00;;;;;;;10.61;87.98;100411.52;1776972;80;21536;-82
2021/12/31 10:38:01;;;;;;;19.57;13.58;;;;;;;10.67;88.08;100406.36;1772089;80;21086;-83
2021/12/31 10:40:45;;;;;;;77.05;51.60;;;;;;;10.74;88.05;100420.54;1777105;80;21811;-85
2021/12/31 10:43:22;;;;;;;38.50;27.73;;;;;;;10.64;87.75;100404.56;1749336;80;21027;-79
2021/12/31 10:46:11;;;;;;;14.95;11.22;;;;;;;10.75;87.83;100413.95;1776595;80;21090;-79
2021/12/31 10:48:51;;;;;;;19.12;12.88;;;;;;;10.79;87.91;100413.19;1774191;80;21070;-79
2021/12/31 10:51:39;;;;;;;19.52;14.73;;;;;;;10.81;87.81;100409.23;1776862;80;21078;-79
2021/12/31 10:54:33;;;;;;;29.48;20.30;;;;;;;10.83;87.81;100411.46;1776868;80;22487;-78
2021/12/31 10:56:58;;;;;;;23.57;15.88;;;;;;;10.82;87.76;100414.97;1777306;80;21077;-79
2021/12/31 10:59:25;;;;;;;27.00;18.92;;;;;;;10.79;87.78;100410.55;1777838;80;21038;-86
2021/12/31 11:01:52;;;;;;;17.35;11.63;;;;;;;10.80;87.83;100410.99;1777844;80;21062;-90
2021/12/31 11:04:21;;;;;;;6.78;5.12;;;;;;;10.79;87.85;100397.80;1778133;80;21078;-87
2021/12/31 11:06:48;;;;;;;8.50;5.55;;;;;;;10.78;88.09;100389.02;1778177;80;21821;-87
2021/12/31 11:09:18;;;;;;;15.75;12.47;;;;;;;10.88;88.14;100395.33;1778104;80;21259;-80
2021/12/31 11:11:44;;;;;;;8.60;7.30;;;;;;;10.88;88.01;100390.94;1777288;80;21083;-74
2021/12/31 11:14:11;;;;;;;10.65;7.53;;;;;;;10.87;88.01;100379.97;1777064;80;21054;-75
2021/12/31 11:16:40;;;;;;;19.40;11.35;;;;;;;10.88;87.96;100385.67;1777170;80;21136;-76
2021/12/31 11:19:10;;;;;;;23.10;15.03;;;;;;;10.92;88.13;100387.94;1777549;80;21783;-76
2021/12/31 11:21:37;;;;;;;15.95;13.40;;;;;;;10.94;88.11;100387.97;1777040;80;21074;-77
2021/12/31 11:24:30;;;;;;;12.75;9.05;;;;;;;10.94;87.98;100383.58;1776698;80;21698;-80
2021/12/31 11:27:15;;;;;;;9.48;7.28;;;;;;;10.97;88.23;100383.64;1776618;80;21058;-77
2021/12/31 11:29:42;;;;;;;7.78;5.90;;;;;;;11.02;88.26;100378.48;1737080;82;21152;-74
2021/12/31 11:32:09;;;;;;;10.13;5.08;;;;;;;11.05;88.18;100375.44;1737507;82;21744;-76
2021/12/31 11:34:37;;;;;;;5.05;3.52;;;;;;;11.05;88.05;100378.06;1712994;82;21059;-76
2021/12/31 11:37:04;;;;;;;6.87;3.62;;;;;;;11.04;88.03;100372.80;1737246;81;21680;-76
2021/12/31 11:39:34;;;;;;;4.87;2.92;;;;;;;11.02;87.96;100363.55;1737216;82;21560;-77
2021/12/31 11:42:04;;;;;;;4.00;2.52;;;;;;;11.00;88.03;100365.27;1737688;82;21699;-76
2021/12/31 11:44:31;;;;;;;5.22;3.22;;;;;;;10.98;87.99;100364.37;1737432;82;21793;-77